Time;durP1;ratioP1;P1;durP2;ratioP2;P2;SDS_P1;SDS_P2;PMS_P1;PMS_P2;Temp;Humidity;BMP_temperature;BMP_pressure;BME280_temperature;BME280_humidity;BME280_pressure;Samples;Min_cycle;Max_cycle;Signal;HPM_P1;HPM_P2
2022/11/12 00:02:24;;;;;;;33.13;15.00;;;;;;;2.58;100.00;103027.34;5070321;28;20116;-84
2022/11/12 00:04:50;;;;;;;27.47;16.37;;;;;;;2.54;100.00;103015.41;5069790;28;20037;-84
2022/11/12 00:07:15;;;;;;;24.37;15.77;;;;;;;2.62;100.00;103028.72;5069671;28;20112;-84
2022/11/12 00:09:40;;;;;;;33.63;16.40;;;;;;;2.58;100.00;103030.81;5068880;28;20036;-84
2022/11/12 00:12:06;;;;;;;33.88;18.48;;;;;;;2.77;100.00;103044.09;5066650;28;20131;-84
2022/11/12 00:14:31;;;;;;;33.07;17.80;;;;;;;2.77;100.00;103047.56;5069850;28;20037;-84
2022/11/12 00:16:56;;;;;;;28.07;16.97;;;;;;;2.67;100.00;103031.75;5069623;28;20031;-84
2022/11/12 00:19:22;;;;;;;31.07;16.13;;;;;;;2.62;100.00;103035.81;5068449;28;20032;-83
2022/11/12 00:21:47;;;;;;;31.03;16.53;;;;;;;2.58;100.00;103036.13;5068316;28;20032;-84
2022/11/12 00:24:12;;;;;;;31.53;16.43;;;;;;;2.61;100.00;103047.41;5069592;28;20023;-84
2022/11/12 00:26:37;;;;;;;31.27;16.70;;;;;;;2.60;100.00;103045.72;5067975;28;20395;-84
2022/11/12 00:29:03;;;;;;;30.27;15.80;;;;;;;2.60;100.00;103037.78;5072585;28;20032;-84
2022/11/12 00:31:28;;;;;;;28.65;15.75;;;;;;;2.57;100.00;103050.34;5072451;28;20062;-84
2022/11/12 00:33:53;;;;;;;37.93;17.70;;;;;;;2.57;100.00;103047.69;5073333;28;20556;-84
2022/11/12 00:36:19;;;;;;;33.47;16.87;;;;;;;2.56;100.00;103042.56;5073574;28;20062;-84
2022/11/12 00:38:44;;;;;;;31.35;17.30;;;;;;;2.57;100.00;103041.56;5071822;28;20028;-84
2022/11/12 00:41:10;;;;;;;31.47;15.60;;;;;;;2.62;100.00;103049.06;5070550;28;20622;-84
2022/11/12 00:43:37;;;;;;;30.17;15.57;;;;;;;2.57;100.00;103045.03;5073265;28;20021;-84
2022/11/12 00:46:03;;;;;;;29.33;15.70;;;;;;;2.55;100.00;103040.88;5073154;28;20473;-84
2022/11/12 00:48:28;;;;;;;34.03;16.70;;;;;;;2.52;100.00;103054.41;5070620;28;20044;-84
2022/11/12 00:51:02;;;;;;;32.30;16.30;;;;;;;2.54;100.00;103041.88;5072300;28;20031;-84
2022/11/12 00:53:28;;;;;;;30.38;16.20;;;;;;;2.61;100.00;103040.31;5072419;28;20024;-84
2022/11/12 00:55:59;;;;;;;33.47;17.10;;;;;;;2.63;100.00;103038.34;5073008;28;20078;-84
2022/11/12 00:58:27;;;;;;;29.17;15.95;;;;;;;2.66;100.00;103045.13;5054728;28;20024;-84
2022/11/12 01:00:52;;;;;;;29.33;16.23;;;;;;;2.68;100.00;103035.22;5059028;28;20063;-84
2022/11/12 01:03:18;;;;;;;28.90;15.23;;;;;;;2.65;100.00;103032.88;5072822;28;20056;-84
2022/11/12 01:05:43;;;;;;;24.57;14.67;;;;;;;2.55;100.00;103020.56;5072898;28;20028;-85
2022/11/12 01:08:08;;;;;;;30.60;15.33;;;;;;;2.58;100.00;103036.13;5071560;28;20032;-84
2022/11/12 01:10:35;;;;;;;25.08;14.07;;;;;;;2.55;100.00;103030.31;5070315;28;20027;-84
2022/11/12 01:13:00;;;;;;;24.30;14.00;;;;;;;2.40;100.00;103022.88;5072922;28;20036;-84
2022/11/12 01:15:25;;;;;;;27.83;13.88;;;;;;;2.43;100.00;103024.38;5072664;28;20024;-84
2022/11/12 01:17:51;;;;;;;24.80;13.93;;;;;;;2.46;100.00;103029.38;5071746;28;20111;-84
2022/11/12 01:20:18;;;;;;;23.93;13.27;;;;;;;2.43;100.00;103024.38;5070834;28;20028;-84
2022/11/12 01:22:44;;;;;;;22.02;13.15;;;;;;;2.46;100.00;103021.44;5071310;28;20499;-84
2022/11/12 01:25:09;;;;;;;25.97;13.57;;;;;;;2.39;100.00;103020.38;5072326;28;20020;-84
2022/11/12 01:27:34;;;;;;;20.47;13.00;;;;;;;2.34;100.00;103014.72;5071574;28;20105;-84
2022/11/12 01:29:59;;;;;;;24.40;12.67;;;;;;;2.26;100.00;103018.09;5069871;28;20167;-84
2022/11/12 01:32:26;;;;;;;19.53;11.80;;;;;;;2.17;100.00;103021.63;5072810;28;20036;-84
2022/11/12 01:34:52;;;;;;;21.35;11.55;;;;;;;2.05;100.00;103019.19;5071822;28;20096;-83
2022/11/12 01:37:17;;;;;;;23.10;11.60;;;;;;;2.07;100.00;103027.81;5053213;28;20112;-84
2022/11/12 01:39:43;;;;;;;19.10;11.35;;;;;;;2.04;100.00;103024.59;5070406;28;20109;-84
2022/11/12 01:42:08;;;;;;;17.07;10.97;;;;;;;2.01;100.00;103024.91;5071469;28;20203;-84
2022/11/12 01:44:37;;;;;;;20.67;11.70;;;;;;;2.02;100.00;103023.91;5072039;28;20484;-84
2022/11/12 01:47:10;;;;;;;20.35;12.30;;;;;;;2.04;100.00;103019.31;5070619;28;20028;-84
2022/11/12 01:49:57;;;;;;;21.67;11.87;;;;;;;2.04;100.00;103019.31;5070443;28;20032;-83
2022/11/12 01:52:28;;;;;;;20.10;11.10;;;;;;;2.00;100.00;103016.13;5072194;28;20362;-84
2022/11/12 01:54:59;;;;;;;23.73;11.32;;;;;;;1.96;100.00;103020.88;5071807;28;20016;-84
2022/11/12 01:57:29;;;;;;;19.52;11.40;;;;;;;1.98;100.00;103025.19;5071504;28;20380;-84
2022/11/12 01:59:59;;;;;;;22.02;12.40;;;;;;;1.92;100.00;103018.66;5052880;28;20078;-83
2022/11/12 02:02:26;;;;;;;21.67;12.27;;;;;;;1.99;100.00;103024.22;5071074;28;20028;-84
2022/11/12 02:04:53;;;;;;;19.95;11.25;;;;;;;2.00;100.00;103016.13;5023856;28;20025;-84
2022/11/12 02:07:21;;;;;;;19.88;11.88;;;;;;;1.95;100.00;103019.22;5053560;28;20024;-83
2022/11/12 02:09:47;;;;;;;18.90;11.77;;;;;;;1.90;100.00;103018.81;5069821;28;20044;-83
2022/11/12 02:13:56;;;;;;;18.42;11.05;;;;;;;1.91;100.00;103020.50;5053588;28;20440;-84
2022/11/12 02:14:58;;;;;;;17.37;10.90;;;;;;;1.92;100.00;103018.66;5080247;28;20044;-83
2022/11/12 02:17:23;;;;;;;21.67;11.68;;;;;;;1.88;100.00;103002.25;5051803;28;20880;-83
2022/11/12 02:19:50;;;;;;;19.10;11.60;;;;;;;1.97;100.00;103016.41;5051650;28;20040;-83
2022/11/12 02:22:16;;;;;;;19.55;11.57;;;;;;;1.88;100.00;103010.19;5077650;28;20028;-84
2022/11/12 02:24:44;;;;;;;17.33;10.93;;;;;;;1.84;100.00;103003.53;5071943;28;20468;-83
2022/11/12 02:27:13;;;;;;;28.17;11.63;;;;;;;1.81;100.00;103011.78;5074184;28;20039;-83
2022/11/12 02:29:45;;;;;;;18.05;11.57;;;;;;;1.82;100.00;103021.38;5074227;28;20035;-83
2022/11/12 02:32:12;;;;;;;21.13;11.07;;;;;;;1.84;100.00;103015.94;5051779;28;20096;-83
2022/11/12 02:34:38;;;;;;;18.03;10.97;;;;;;;1.81;100.00;103017.06;5071297;28;20306;-84
2022/11/12 02:37:04;;;;;;;18.88;10.98;;;;;;;1.83;100.00;103017.72;5070686;28;20379;-84
2022/11/12 02:39:29;;;;;;;17.90;11.27;;;;;;;1.80;100.00;103015.41;5068522;28;20028;-83
2022/11/12 02:41:54;;;;;;;17.40;10.57;;;;;;;1.84;100.00;103016.75;5070937;28;20055;-83
2022/11/12 02:44:20;;;;;;;18.23;10.83;;;;;;;1.82;100.00;103008.16;5071248;28;20059;-83
2022/11/12 02:46:45;;;;;;;19.53;11.57;;;;;;;1.79;100.00;103017.19;5067524;28;20043;-83
2022/11/12 02:51:45;;;;;;;20.23;10.43;;;;;;;1.78;100.00;102999.66;5264007;22;20048;-83
2022/11/12 02:54:11;;;;;;;19.23;11.50;;;;;;;1.77;100.00;103000.63;5050377;28;20056;-84
2022/11/12 02:56:36;;;;;;;17.20;10.17;;;;;;;1.72;100.00;102996.75;5050227;28;20029;-83
2022/11/12 02:59:01;;;;;;;18.43;10.77;;;;;;;1.64;100.00;102985.09;5047221;28;20120;-83
2022/11/12 03:01:27;;;;;;;18.55;10.07;;;;;;;1.72;100.00;102994.13;5069284;28;20028;-83
2022/11/12 03:03:52;;;;;;;13.97;9.07;;;;;;;1.71;100.00;102985.38;5070249;28;20042;-83
2022/11/12 03:06:17;;;;;;;17.50;9.80;;;;;;;1.72;100.00;102986.19;5061238;28;20029;-83
2022/11/12 03:08:43;;;;;;;18.50;10.20;;;;;;;1.68;100.00;102983.03;5049895;28;20024;-83
2022/11/12 03:11:10;;;;;;;17.05;9.82;;;;;;;1.70;100.00;102993.44;5049728;28;20075;-83
2022/11/12 03:13:35;;;;;;;18.98;10.15;;;;;;;1.69;100.00;102997.91;5049725;28;20108;-83
2022/11/12 03:16:01;;;;;;;15.67;9.50;;;;;;;1.69;100.00;102992.63;5064567;28;20100;-83
2022/11/12 03:18:27;;;;;;;15.63;9.68;;;;;;;1.69;100.00;102997.06;5051766;28;20079;-82
2022/11/12 03:20:52;;;;;;;17.10;10.30;;;;;;;1.64;100.00;103000.13;5050188;28;20056;-83
2022/11/12 03:23:17;;;;;;;18.47;10.27;;;;;;;1.61;100.00;103005.69;5050389;28;20021;-82
2022/11/12 03:25:43;;;;;;;20.60;9.97;;;;;;;1.57;100.00;103005.16;5051868;28;20025;-83
2022/11/12 03:28:11;;;;;;;15.40;9.37;;;;;;;1.58;100.00;103012.13;5055809;28;20484;-83
2022/11/12 03:30:39;;;;;;;17.40;9.70;;;;;;;1.57;100.00;102999.88;5051559;28;20686;-83
2022/11/12 03:33:06;;;;;;;17.65;9.45;;;;;;;1.56;100.00;103008.78;5070421;28;20024;-84
2022/11/12 03:35:32;;;;;;;16.15;9.55;;;;;;;1.50;100.00;103006.72;5070445;28;20467;-83
2022/11/12 03:37:58;;;;;;;15.98;9.10;;;;;;;1.51;100.00;103021.59;5054402;28;20380;-83
2022/11/12 03:40:24;;;;;;;16.58;9.18;;;;;;;1.51;100.00;103017.16;5049866;28;20021;-84
2022/11/12 03:42:51;;;;;;;15.67;8.97;;;;;;;1.50;100.00;103015.47;5048212;28;20040;-83
2022/11/12 03:45:17;;;;;;;17.77;9.70;;;;;;;1.49;100.00;103011.19;5050251;28;20033;-83
2022/11/12 03:47:44;;;;;;;18.20;10.25;;;;;;;1.51;100.00;103008.38;5054034;28;20024;-83
2022/11/12 03:50:12;;;;;;;18.02;9.80;;;;;;;1.56;100.00;103014.06;5048007;28;20029;-83
2022/11/12 03:52:38;;;;;;;17.27;10.23;;;;;;;1.54;100.00;103008.09;5046723;28;20117;-83
2022/11/12 03:55:04;;;;;;;17.70;9.43;;;;;;;1.49;100.00;103015.59;5056723;28;20486;-83
2022/11/12 03:57:30;;;;;;;16.92;9.52;;;;;;;1.42;100.00;103011.88;5062826;28;20031;-83
2022/11/12 03:59:57;;;;;;;15.37;9.50;;;;;;;1.43;100.00;103016.19;5055265;28;20060;-83
2022/11/12 04:02:24;;;;;;;17.98;9.23;;;;;;;1.43;100.00;103013.56;5071583;28;20037;-83
2022/11/12 04:10:17;;;;;;;16.77;9.20;;;;;;;1.36;100.00;103000.91;5073863;28;20036;-83
2022/11/12 04:15:26;;;;;;;13.32;8.55;;;;;;;1.40;100.00;103003.28;5063662;28;20133;-83
2022/11/12 04:23:19;;;;;;;15.40;9.45;;;;;;;1.48;100.00;102993.66;5035294;28;20037;-84
2022/11/12 04:28:28;;;;;;;14.40;8.40;;;;;;;1.39;100.00;102981.28;5053988;28;20099;-84
2022/11/12 04:30:54;;;;;;;15.23;8.77;;;;;;;1.39;100.00;102985.75;5051317;28;20029;-84
2022/11/12 04:33:19;;;;;;;16.23;8.87;;;;;;;1.29;100.00;102975.22;5066683;28;20759;-84
2022/11/12 04:35:44;;;;;;;13.77;8.80;;;;;;;1.33;100.00;102981.88;5053864;28;20121;-84
2022/11/12 04:38:09;;;;;;;20.87;9.63;;;;;;;1.35;100.00;102990.50;5034114;28;20025;-84
2022/11/12 04:46:04;;;;;;;14.18;8.73;;;;;;;1.28;100.00;102979.63;5060540;28;20105;-83
2022/11/12 04:48:29;;;;;;;14.55;8.40;;;;;;;1.23;100.00;102979.25;5042858;28;20438;-83
2022/11/12 04:50:58;;;;;;;17.77;9.20;;;;;;;1.24;100.00;102980.94;5048595;28;20083;-83
2022/11/12 04:53:24;;;;;;;15.65;8.60;;;;;;;1.24;100.00;102982.72;5063882;28;20021;-83
2022/11/12 04:55:50;;;;;;;15.07;8.18;;;;;;;1.20;100.00;102977.72;5053537;28;20083;-82
2022/11/12 04:58:16;;;;;;;14.25;7.93;;;;;;;1.16;100.00;102979.00;5053167;28;20056;-83
2022/11/12 05:00:41;;;;;;;14.07;8.67;;;;;;;1.12;100.00;102974.13;5054871;28;20504;-83
2022/11/12 05:03:06;;;;;;;16.53;8.43;;;;;;;1.15;100.00;102972.03;5071734;28;20036;-82
2022/11/12 05:05:32;;;;;;;15.47;8.70;;;;;;;1.20;100.00;102969.78;5055203;28;20013;-83
2022/11/12 05:08:01;;;;;;;19.60;8.80;;;;;;;1.25;100.00;102963.25;5062413;28;20060;-83
2022/11/12 05:10:26;;;;;;;15.47;8.80;;;;;;;1.17;100.00;102966.59;5054554;28;20036;-83
2022/11/12 05:12:52;;;;;;;15.37;8.50;;;;;;;1.25;100.00;102963.25;5052933;28;20291;-82
2022/11/12 05:15:17;;;;;;;16.23;9.33;;;;;;;1.26;100.00;102963.13;5051745;28;20039;-82
2022/11/12 05:17:43;;;;;;;15.37;8.87;;;;;;;1.24;100.00;102967.72;5034476;28;20051;-83
2022/11/12 05:20:10;;;;;;;15.13;8.40;;;;;;;1.25;100.00;102964.09;5055929;28;20527;-83
2022/11/12 05:22:37;;;;;;;16.13;8.43;;;;;;;1.23;100.00;102960.78;5052744;28;20031;-83
2022/11/12 05:25:03;;;;;;;15.80;7.90;;;;;;;1.15;100.00;102952.72;5051504;28;20048;-83
2022/11/12 05:27:29;;;;;;;14.87;8.33;;;;;;;1.10;100.00;102947.00;5044601;28;20029;-83
2022/11/12 05:29:54;;;;;;;12.33;8.57;;;;;;;1.13;100.00;102959.94;5071551;28;20279;-83
2022/11/12 05:32:19;;;;;;;13.17;8.00;;;;;;;1.13;100.00;102949.38;5068088;28;20037;-83
2022/11/12 05:34:44;;;;;;;15.20;8.33;;;;;;;1.10;100.00;102944.38;5057941;28;20106;-83
2022/11/12 05:37:12;;;;;;;16.70;9.27;;;;;;;1.09;100.00;102953.31;5057071;28;20104;-83
2022/11/12 05:39:37;;;;;;;15.07;9.00;;;;;;;1.07;100.00;102953.44;5053833;28;20036;-83
2022/11/12 05:42:03;;;;;;;14.07;8.20;;;;;;;1.10;100.00;102954.94;5055413;28;20021;-83
2022/11/12 05:44:28;;;;;;;13.73;7.82;;;;;;;1.07;100.00;102955.25;5059275;28;20025;-83
2022/11/12 05:46:54;;;;;;;13.87;8.50;;;;;;;1.03;100.00;102955.53;5057553;28;20111;-83
2022/11/12 05:49:19;;;;;;;13.52;7.80;;;;;;;1.04;100.00;102949.28;5072175;28;20020;-83
2022/11/12 05:51:44;;;;;;;15.60;8.83;;;;;;;1.01;100.00;102944.28;5071759;28;20021;-81
2022/11/12 06:01:55;;;;;;;12.32;7.68;;;;;;;0.93;100.00;102944.13;5291062;22;20446;-82
2022/11/12 06:04:22;;;;;;;11.77;7.70;;;;;;;0.96;100.00;102957.06;5048141;28;20040;-82
2022/11/12 06:06:47;;;;;;;15.68;8.13;;;;;;;0.90;100.00;102955.00;5047803;28;20087;-82
2022/11/12 06:09:12;;;;;;;15.03;8.17;;;;;;;0.85;100.00;102936.09;5050623;28;20033;-83
2022/11/12 06:11:38;;;;;;;16.33;8.47;;;;;;;0.84;100.00;102945.81;5051399;28;20504;-82
2022/11/12 06:14:05;;;;;;;14.75;8.80;;;;;;;0.94;100.00;102948.44;5049199;28;20056;-81
2022/11/12 06:16:30;;;;;;;13.38;7.55;;;;;;;0.90;100.00;102944.44;5043032;28;20029;-82
2022/11/12 06:18:56;;;;;;;12.83;7.77;;;;;;;0.88;100.00;102951.66;5029662;28;20032;-90
2022/11/12 06:21:21;;;;;;;13.38;8.35;;;;;;;0.92;100.00;102953.03;5067125;28;20045;-86
2022/11/12 06:23:58;;;;;;;12.83;7.43;;;;;;;0.84;100.00;102951.09;5052653;28;20096;-87
2022/11/12 06:26:30;;;;;;;12.57;7.57;;;;;;;0.76;100.00;102948.31;5046810;28;20033;-85
2022/11/12 06:28:56;;;;;;;12.27;7.95;;;;;;;0.82;100.00;102962.78;5052065;28;20100;-83
2022/11/12 06:31:22;;;;;;;14.73;8.87;;;;;;;0.87;100.00;102971.09;5050031;28;20634;-87
2022/11/12 06:33:48;;;;;;;15.65;8.32;;;;;;;0.93;100.00;102975.81;5052087;28;20021;-85
2022/11/12 06:36:17;;;;;;;16.52;8.20;;;;;;;0.90;100.00;102970.84;5048499;28;20088;-86
2022/11/12 06:38:42;;;;;;;16.85;8.43;;;;;;;0.83;100.00;102959.97;5049755;28;20170;-86
2022/11/12 06:41:13;;;;;;;15.03;8.33;;;;;;;0.78;100.00;102962.22;5050998;28;20059;-86
2022/11/12 06:43:39;;;;;;;16.25;7.88;;;;;;;0.81;100.00;102958.47;5062613;28;20139;-84
2022/11/12 06:46:12;;;;;;;14.07;7.93;;;;;;;0.84;100.00;102960.81;5060958;28;20028;-85
2022/11/12 06:48:38;;;;;;;16.17;8.07;;;;;;;0.84;100.00;102956.38;5052842;28;20072;-85
2022/11/12 06:51:29;;;;;;;13.27;8.40;;;;;;;0.87;100.00;102961.38;5060487;28;20061;-85
2022/11/12 06:53:54;;;;;;;15.55;8.02;;;;;;;0.87;100.00;102966.66;5046029;28;20111;-81
2022/11/12 06:56:20;;;;;;;14.30;8.50;;;;;;;0.85;100.00;102962.50;5049408;28;20573;-85
2022/11/12 06:58:45;;;;;;;14.20;7.67;;;;;;;0.87;100.00;102976.38;5048059;28;20103;-85
2022/11/12 07:01:13;;;;;;;18.98;8.35;;;;;;;0.80;100.00;102972.63;5047766;28;20033;-84
2022/11/12 07:03:40;;;;;;;12.90;7.80;;;;;;;0.73;100.00;102970.53;5051539;28;20028;-86
2022/11/12 07:06:11;;;;;;;14.20;7.47;;;;;;;0.73;100.00;102970.53;5049576;28;20056;-85
2022/11/12 07:08:37;;;;;;;12.23;7.93;;;;;;;0.70;100.00;102970.84;5048857;28;20024;-85
2022/11/12 07:11:04;;;;;;;17.08;8.20;;;;;;;0.75;100.00;102973.88;5048383;28;20031;-84
2022/11/12 07:13:31;;;;;;;16.00;8.32;;;;;;;0.80;100.00;102973.47;5044853;28;20032;-85
2022/11/12 07:15:59;;;;;;;12.45;8.40;;;;;;;0.87;100.00;102981.66;5049397;28;20112;-85
2022/11/12 07:18:25;;;;;;;14.57;8.18;;;;;;;0.93;100.00;102978.44;5026834;28;20048;-86
2022/11/12 07:20:50;;;;;;;19.80;8.40;;;;;;;1.00;100.00;102982.19;5043063;28;20083;-85
2022/11/12 07:23:16;;;;;;;14.53;8.57;;;;;;;1.01;100.00;102972.47;5051058;28;20029;-86
2022/11/12 07:25:41;;;;;;;15.18;9.45;;;;;;;1.11;100.00;102977.72;5046914;28;20369;-85
2022/11/12 07:28:07;;;;;;;18.00;9.17;;;;;;;1.18;100.00;102984.13;5048718;28;20484;-85
2022/11/12 07:30:32;;;;;;;14.63;9.53;;;;;;;1.23;100.00;102979.25;5047737;28;20025;-85
2022/11/12 07:32:57;;;;;;;15.80;9.37;;;;;;;1.25;100.00;102979.09;5032723;28;20029;-86
2022/11/12 07:35:23;;;;;;;16.63;8.90;;;;;;;1.30;100.00;102980.34;5051057;28;20055;-86
2022/11/12 07:37:48;;;;;;;16.13;9.43;;;;;;;1.36;100.00;102979.78;5048356;28;20025;-86
2022/11/12 07:40:14;;;;;;;18.07;8.77;;;;;;;1.44;100.00;102988.81;5045863;28;20291;-86
2022/11/12 07:42:39;;;;;;;15.23;8.90;;;;;;;1.45;100.00;102991.28;5031923;28;20146;-88
2022/11/12 07:45:05;;;;;;;15.63;9.38;;;;;;;1.52;100.00;102991.53;5051155;28;20025;-88
2022/11/12 07:47:30;;;;;;;18.17;8.90;;;;;;;1.57;100.00;102996.38;5033028;28;20033;-86
2022/11/12 07:49:56;;;;;;;16.70;9.60;;;;;;;1.60;100.00;102998.75;5048566;28;20108;-85
2022/11/12 07:52:21;;;;;;;17.33;9.67;;;;;;;1.66;100.00;102995.53;5050235;28;20044;-87
2022/11/12 07:54:50;;;;;;;17.47;10.00;;;;;;;1.75;100.00;102997.31;5048694;28;20032;-86
2022/11/12 07:57:15;;;;;;;24.92;9.98;;;;;;;1.84;100.00;103000.06;5047754;28;20064;-87
2022/11/12 07:59:40;;;;;;;20.73;11.07;;;;;;;1.96;100.00;102996.25;5049364;28;20149;-89
2022/11/12 08:02:08;;;;;;;23.30;12.27;;;;;;;2.03;100.00;102994.69;5050173;28;20585;-85
2022/11/12 08:04:34;;;;;;;50.92;22.52;;;;;;;2.19;100.00;102999.31;5049312;28;20159;-89
2022/11/12 08:07:00;;;;;;;21.35;13.55;;;;;;;2.34;100.00;102994.34;5043714;28;20111;-87
2022/11/12 08:09:25;;;;;;;29.27;13.00;;;;;;;2.39;100.00;102996.53;5044243;28;20029;-88
2022/11/12 08:11:53;;;;;;;25.87;13.47;;;;;;;2.46;100.00;103007.41;5048386;28;20040;-87
2022/11/12 08:14:18;;;;;;;23.80;12.90;;;;;;;2.51;100.00;103008.59;5044031;28;20286;-86
2022/11/12 08:16:45;;;;;;;29.70;16.90;;;;;;;2.47;100.00;102995.81;5045538;28;20037;-86
2022/11/12 08:19:10;;;;;;;22.57;12.97;;;;;;;2.62;100.00;103006.72;5045478;28;20111;-87
2022/11/12 08:21:36;;;;;;;23.02;12.48;;;;;;;2.66;100.00;103010.72;5043489;28;20036;-87
2022/11/12 08:24:01;;;;;;;20.87;12.33;;;;;;;2.68;100.00;103008.75;5043850;28;20399;-86
2022/11/12 08:26:26;;;;;;;76.37;37.63;;;;;;;2.80;100.00;103015.47;5049704;28;20048;-87
2022/11/12 08:28:53;;;;;;;40.77;19.97;;;;;;;2.93;100.00;103003.66;5049132;28;20037;-89
2022/11/12 08:31:21;;;;;;;32.30;17.52;;;;;;;3.09;100.00;103009.13;5046181;28;20496;-87
2022/11/12 08:33:47;;;;;;;36.90;17.50;;;;;;;3.13;100.00;103013.09;5036069;28;20033;-87
2022/11/12 08:36:14;;;;;;;41.07;21.10;;;;;;;3.24;100.00;103017.31;5047389;28;20033;-89
2022/11/12 08:38:47;;;;;;;29.45;17.17;;;;;;;3.32;100.00;103011.25;5048132;28;20395;-89
2022/11/12 08:41:13;;;;;;;32.47;16.90;;;;;;;3.38;100.00;103015.13;5050671;28;20017;-89
2022/11/12 08:43:40;;;;;;;25.33;12.50;;;;;;;3.38;100.00;103013.28;5050855;28;20029;-88
2022/11/12 08:46:06;;;;;;;24.50;13.70;;;;;;;3.51;100.00;103018.19;5049274;28;20104;-88
2022/11/12 08:48:33;;;;;;;22.37;12.90;;;;;;;3.57;100.00;103016.72;5051572;28;20032;-88
2022/11/12 08:51:01;;;;;;;31.42;13.15;;;;;;;3.67;100.00;103017.41;5051497;28;20666;-89
2022/11/12 08:53:27;;;;;;;24.50;12.10;;;;;;;3.77;100.00;103020.81;5056112;28;20017;-89
2022/11/12 08:58:41;;;;;;;21.98;12.38;;;;;;;3.89;100.00;103017.88;5424042;22;20072;-89
2022/11/12 09:01:18;;;;;;;20.75;11.57;;;;;;;3.84;100.00;102997.13;5052485;28;20029;-88
2022/11/12 09:08:09;;;;;;;;;;;;;;;;;;;;;
2022/11/12 09:10:36;;;;;;;15.77;11.07;;;;;;;4.41;100.00;103027.50;5023227;28;20508;-86
2022/11/12 09:13:14;;;;;;;20.87;12.60;;;;;;;4.41;100.00;103000.97;5053533;28;20335;-86
2022/11/12 09:15:39;;;;;;;17.33;11.30;;;;;;;4.53;100.00;102998.81;5029982;28;20029;-87
2022/11/12 09:18:26;;;;;;;19.30;11.98;;;;;;;4.91;100.00;103028.41;5053972;28;20495;-86
2022/11/12 09:20:51;;;;;;;21.17;10.73;;;;;;;5.05;100.00;103023.44;5034363;28;20112;-87
2022/11/12 09:23:16;;;;;;;18.73;10.90;;;;;;;5.13;100.00;103020.75;5053210;28;20322;-86
2022/11/12 09:25:53;;;;;;;18.90;10.30;;;;;;;5.28;100.00;103032.38;5051757;28;20096;-87
2022/11/12 09:28:18;;;;;;;18.63;11.10;;;;;;;5.43;100.00;103034.34;5052873;28;20051;-87
2022/11/12 09:30:47;;;;;;;18.90;11.10;;;;;;;5.50;100.00;103026.53;5051322;28;20112;-87
2022/11/12 09:33:17;;;;;;;19.35;9.85;;;;;;;5.64;100.00;103033.00;5053377;28;20534;-87
2022/11/12 09:35:44;;;;;;;19.08;10.38;;;;;;;5.73;100.00;103029.28;5046706;28;20551;-87
2022/11/12 09:38:09;;;;;;;15.65;9.60;;;;;;;5.81;100.00;103026.63;5047059;28;20033;-86
2022/11/12 09:41:11;;;;;;;16.80;10.33;;;;;;;5.91;100.00;103023.75;5052724;28;20031;-85
2022/11/12 09:43:52;;;;;;;15.35;9.90;;;;;;;5.99;100.00;103030.88;5052941;28;20021;-86
2022/11/12 09:46:44;;;;;;;16.30;9.85;;;;;;;6.05;100.00;103024.88;5054871;28;20387;-86
2022/11/12 09:49:22;;;;;;;17.63;9.90;;;;;;;6.13;100.00;103031.97;5035213;28;20033;-87
2022/11/12 09:51:52;;;;;;;19.77;11.15;;;;;;;6.15;100.00;103033.50;5033432;28;20037;-85
2022/11/12 09:54:22;;;;;;;18.50;10.57;;;;;;;6.27;100.00;103038.41;5044875;28;20033;-88
2022/11/12 09:56:49;;;;;;;25.80;12.90;;;;;;;6.33;100.00;103035.06;5051516;28;20303;-87
2022/11/12 09:59:15;;;;;;;28.38;15.55;;;;;;;6.38;100.00;103032.72;5051409;28;20037;-87
2022/11/12 10:02:05;;;;;;;62.85;34.80;;;;;;;6.46;100.00;103035.31;5051789;28;20064;-87
2022/11/12 10:04:44;;;;;;;20.77;12.95;;;;;;;6.53;100.00;103019.47;5052697;28;20044;-88
2022/11/12 10:07:30;;;;;;;25.00;17.10;;;;;;;6.71;100.00;103023.66;5050876;28;20086;-85
2022/11/12 10:10:02;;;;;;;17.63;10.95;;;;;;;6.75;100.00;103023.16;5049358;28;20033;-87
2022/11/12 10:12:58;;;;;;;16.17;10.32;;;;;;;6.89;100.00;103020.72;5052726;28;20037;-87
2022/11/12 10:18:31;;;;;;;15.70;9.90;;;;;;;7.21;100.00;103013.44;5052377;28;20035;-87
2022/11/12 10:21:12;;;;;;;23.52;14.75;;;;;;;7.37;100.00;103007.94;5031294;28;20029;-86
2022/11/12 10:23:45;;;;;;;22.08;11.68;;;;;;;7.50;100.00;103009.97;5032201;28;20075;-87
2022/11/12 10:26:13;;;;;;;16.75;10.80;;;;;;;7.67;100.00;103010.59;5042726;28;20037;-86
2022/11/12 10:29:09;;;;;;;16.98;10.23;;;;;;;7.86;100.00;103013.72;5056962;28;20074;-87
2022/11/12 10:31:35;;;;;;;21.35;9.60;;;;;;;8.00;100.00;103006.72;5071818;28;20120;-87
2022/11/12 10:34:12;;;;;;;18.13;10.87;;;;;;;8.18;100.00;103014.31;5063766;28;20551;-87
2022/11/12 10:36:42;;;;;;;17.20;9.70;;;;;;;8.30;100.00;103023.50;5051101;28;20033;-86
2022/11/12 10:39:07;;;;;;;17.55;10.27;;;;;;;8.41;100.00;103016.00;5051017;28;20029;-86
2022/11/12 10:41:33;;;;;;;17.43;10.30;;;;;;;8.56;100.00;103003.47;5050883;28;20033;-87
2022/11/12 10:44:04;;;;;;;14.05;9.35;;;;;;;8.71;100.00;103007.91;5051162;28;20032;-86
2022/11/12 10:46:35;;;;;;;15.13;10.07;;;;;;;8.81;100.00;103003.06;5050827;28;20033;-86
2022/11/12 10:49:02;;;;;;;14.00;9.40;;;;;;;8.96;100.00;102999.47;5050458;28;20515;-87
2022/11/12 10:51:30;;;;;;;13.25;10.18;;;;;;;9.02;100.00;102996.03;5050756;28;20029;-87
2022/11/12 10:53:55;;;;;;;15.30;10.18;;;;;;;9.16;100.00;103002.31;5053455;28;20119;-87
2022/11/12 10:56:29;;;;;;;15.13;9.93;;;;;;;9.18;100.00;102993.06;5043985;28;20163;-88
2022/11/12 10:59:19;;;;;;;16.40;9.60;;;;;;;9.33;100.00;103003.66;5031640;28;20022;-87
2022/11/12 11:01:45;;;;;;;13.60;9.73;;;;;;;9.42;100.00;102996.31;5053551;28;20491;-88
2022/11/12 11:04:31;;;;;;;15.30;9.70;;;;;;;9.54;100.00;102996.59;5052014;28;20091;-87
2022/11/12 11:07:06;;;;;;;15.63;9.70;;;;;;;9.67;100.00;103001.19;5051944;28;20024;-88
2022/11/12 11:09:33;;;;;;;16.92;9.50;;;;;;;9.77;100.00;102990.94;5052239;28;20024;-88
2022/11/12 11:11:59;;;;;;;14.43;9.50;;;;;;;9.91;100.00;102990.97;5053308;28;20029;-89
2022/11/12 11:14:33;;;;;;;16.10;10.27;;;;;;;9.98;100.00;102989.16;5045213;28;20032;-87
2022/11/12 11:17:03;;;;;;;13.45;10.63;;;;;;;10.11;100.00;102993.75;5051427;28;20032;-87
2022/11/12 11:19:39;;;;;;;13.70;9.32;;;;;;;10.16;100.00;102993.94;5048618;28;20115;-87
2022/11/12 11:22:35;;;;;;;14.68;9.82;;;;;;;10.25;100.00;102995.44;5051227;28;20017;-87
2022/11/12 11:25:03;;;;;;;15.82;8.90;;;;;;;10.36;100.00;102994.00;5046112;28;20048;-87
2022/11/12 11:27:36;;;;;;;18.20;9.75;;;;;;;10.40;100.00;102981.88;5054037;28;20035;-88
2022/11/12 11:30:08;;;;;;;13.83;9.50;;;;;;;10.55;100.00;102984.38;5056103;28;20090;-88
2022/11/12 11:33:08;;;;;;;16.23;9.40;;;;;;;10.68;99.67;102978.19;5052239;28;20306;-88
2022/11/12 11:36:04;;;;;;;11.18;8.85;;;;;;;10.75;97.59;102975.50;5052290;28;20749;-88
2022/11/12 11:38:38;;;;;;;14.73;8.80;;;;;;;10.81;96.52;102974.69;5049046;28;20033;-87
2022/11/12 11:41:28;;;;;;;14.82;9.45;;;;;;;10.85;98.58;102975.09;5052198;28;20056;-87
2022/11/12 11:44:31;;;;;;;13.18;9.18;;;;;;;10.97;95.84;102977.97;5050888;28;20021;-88
2022/11/12 11:47:20;;;;;;;13.23;8.88;;;;;;;11.13;97.13;102971.38;5050760;28;20029;-88
2022/11/12 11:50:26;;;;;;;13.68;8.77;;;;;;;11.29;98.56;102965.56;5052040;28;20075;-89
2022/11/12 11:53:07;;;;;;;13.10;9.00;;;;;;;11.36;98.99;102960.97;5051264;28;20057;-88
2022/11/12 11:56:00;;;;;;;13.87;9.43;;;;;;;11.43;96.19;102954.78;5050077;28;20037;-88
2022/11/12 11:58:44;;;;;;;12.70;9.23;;;;;;;11.54;94.45;102958.66;5039290;28;20774;-89
2022/11/12 12:01:47;;;;;;;16.33;10.02;;;;;;;11.57;93.23;102960.94;5031234;28;20045;-88
2022/11/12 12:04:22;;;;;;;15.35;10.30;;;;;;;11.52;90.71;102943.59;5017768;28;20025;-88
2022/11/12 12:07:25;;;;;;;15.65;10.32;;;;;;;11.65;93.60;102953.47;5050447;28;20419;-88